Time;durP1;ratioP1;P1;durP2;ratioP2;P2;SDS_P1;SDS_P2;PMS_P1;PMS_P2;Temp;Humidity;BMP_temperature;BMP_pressure;BME280_temperature;BME280_humidity;BME280_pressure;Samples;Min_cycle;Max_cycle;Signal;HPM_P1;HPM_P2
2022/11/11 00:02:42;;;;;;;32.85;17.32;;;;;;;9.09;88.59;96801.01;1712964;84;21529;-68
2022/11/11 00:05:27;;;;;;;33.05;17.02;;;;;;;9.06;88.46;96804.07;1713024;84;21115;-68
2022/11/11 00:08:13;;;;;;;41.58;21.25;;;;;;;8.97;88.61;96810.17;1712963;83;21047;-68
2022/11/11 00:11:05;;;;;;;41.15;21.85;;;;;;;8.95;88.73;96817.61;1712898;84;21024;-68
2022/11/11 00:13:50;;;;;;;43.52;20.20;;;;;;;8.92;88.73;96814.52;1712962;84;21541;-68
2022/11/11 00:25:45;;;;;;;41.88;21.25;;;;;;;8.82;89.80;96824.09;1713254;84;21088;-69
2022/11/11 00:28:30;;;;;;;38.92;20.12;;;;;;;8.79;89.70;96829.30;1712756;84;21573;-69
2022/11/11 00:31:15;;;;;;;36.33;20.02;;;;;;;8.82;89.91;96835.94;1713019;84;21084;-68
2022/11/11 00:34:01;;;;;;;38.67;18.90;;;;;;;8.88;90.22;96828.52;1713001;84;21105;-68
2022/11/11 00:36:46;;;;;;;33.23;17.65;;;;;;;8.95;90.24;96826.38;1712975;84;21494;-68
2022/11/11 00:39:31;;;;;;;33.40;17.67;;;;;;;8.99;90.13;96823.32;1712977;84;21080;-68
2022/11/11 00:42:16;;;;;;;29.48;15.78;;;;;;;9.05;90.07;96820.75;1712941;83;21540;-68
2022/11/11 00:45:01;;;;;;;28.12;13.40;;;;;;;9.07;90.03;96816.35;1713009;84;21043;-68
2022/11/11 00:50:57;;;;;;;27.55;16.27;;;;;;;9.17;89.85;96818.61;1712715;84;21759;-68
2022/11/11 00:53:42;;;;;;;29.65;16.20;;;;;;;9.15;89.80;96816.40;1714836;83;21059;-68
2022/11/11 00:56:28;;;;;;;31.25;15.98;;;;;;;9.16;89.63;96826.08;1718439;83;21000;-69
2022/11/11 00:59:12;;;;;;;29.02;16.02;;;;;;;9.13;89.29;96822.99;1718591;83;21012;-68
2022/11/11 01:01:57;;;;;;;28.47;15.23;;;;;;;9.12;89.48;96825.16;1718510;83;21083;-69
2022/11/11 01:04:43;;;;;;;28.35;15.10;;;;;;;9.09;89.20;96822.52;1718597;83;21100;-68
2022/11/11 01:07:28;;;;;;;23.32;12.88;;;;;;;9.15;89.44;96829.16;1718454;83;21123;-69
2022/11/11 01:10:36;;;;;;;21.55;12.90;;;;;;;9.19;89.11;96824.34;1718423;83;21079;-68
2022/11/11 01:13:10;;;;;;;22.13;13.25;;;;;;;9.19;89.04;96819.06;1718421;83;21046;-68
2022/11/11 01:15:53;;;;;;;21.48;13.35;;;;;;;9.22;88.99;96827.02;1718589;83;21016;-68
2022/11/11 01:18:38;;;;;;;19.35;12.07;;;;;;;9.24;89.07;96829.20;1718401;83;21502;-68
2022/11/11 01:21:24;;;;;;;20.80;12.10;;;;;;;9.28;88.96;96819.58;1718702;83;21030;-68
2022/11/11 01:24:09;;;;;;;22.15;11.90;;;;;;;9.35;89.38;96827.97;1718509;83;21528;-68
2022/11/11 01:26:54;;;;;;;24.92;13.35;;;;;;;9.38;88.63;96829.30;1718673;83;21103;-68
2022/11/11 01:29:39;;;;;;;17.73;10.75;;;;;;;9.25;87.83;96827.47;1718486;83;21027;-68
2022/11/11 01:32:25;;;;;;;18.57;12.18;;;;;;;9.26;88.21;96825.27;1718576;83;21080;-68
2022/11/11 01:35:09;;;;;;;17.70;11.18;;;;;;;9.17;88.21;96819.52;1718481;83;21028;-69
2022/11/11 01:37:58;;;;;;;17.25;11.30;;;;;;;9.12;87.74;96825.16;1718616;83;21047;-69
2022/11/11 01:40:45;;;;;;;17.45;11.10;;;;;;;9.15;88.25;96825.61;1718489;83;20984;-69
2022/11/11 01:43:30;;;;;;;16.87;11.15;;;;;;;9.14;87.84;96829.13;1718786;83;21067;-68
2022/11/11 01:46:35;;;;;;;20.30;11.43;;;;;;;9.13;87.81;96831.33;1718154;83;21012;-69
2022/11/11 01:49:46;;;;;;;21.80;12.50;;;;;;;9.09;87.55;96838.31;1718690;83;21034;-69
2022/11/11 01:52:38;;;;;;;28.50;14.03;;;;;;;9.00;87.57;96833.88;1718707;83;21055;-69
2022/11/11 01:55:24;;;;;;;23.20;13.72;;;;;;;8.92;87.33;96846.11;1721384;83;21505;-68
2022/11/11 01:58:13;;;;;;;25.02;13.80;;;;;;;8.83;87.60;96849.97;1726429;83;21034;-68
2022/11/11 02:01:00;;;;;;;29.55;14.15;;;;;;;8.73;87.66;96850.31;1726585;83;20995;-68
2022/11/11 02:07:00;;;;;;;24.40;13.98;;;;;;;8.63;87.89;96851.98;1726430;83;21022;-68
2022/11/11 02:09:47;;;;;;;23.42;12.93;;;;;;;8.59;88.30;96858.51;1726430;83;21512;-68
2022/11/11 02:15:37;;;;;;;24.63;13.10;;;;;;;8.61;88.06;96853.70;1726558;83;21501;-68
2022/11/11 02:18:22;;;;;;;25.80;12.82;;;;;;;8.66;88.14;96864.28;1726438;83;21477;-68
2022/11/11 02:21:11;;;;;;;27.35;13.53;;;;;;;8.68;88.08;96866.50;1726254;83;21018;-68
2022/11/11 02:24:09;;;;;;;25.55;13.30;;;;;;;8.67;88.05;96858.17;1726534;83;20991;-69
2022/11/11 02:26:56;;;;;;;25.97;13.28;;;;;;;8.67;87.93;96862.12;1726296;83;21120;-69
2022/11/11 02:29:44;;;;;;;22.87;12.68;;;;;;;8.68;87.93;96865.62;1726303;83;21070;-68
2022/11/11 02:32:29;;;;;;;23.07;12.28;;;;;;;8.69;87.83;96873.52;1726307;83;21067;-68
2022/11/11 02:35:34;;;;;;;28.15;12.50;;;;;;;8.70;87.80;96868.72;1726242;83;21544;-68
2022/11/11 02:38:19;;;;;;;24.27;11.05;;;;;;;8.74;87.49;96868.30;1726287;83;21007;-68
2022/11/11 02:44:07;;;;;;;21.10;9.98;;;;;;;8.76;87.10;96867.44;1726517;83;21014;-68
2022/11/11 02:46:53;;;;;;;24.18;11.22;;;;;;;8.71;86.67;96865.64;1726390;83;21030;-68
2022/11/11 02:49:38;;;;;;;20.12;10.53;;;;;;;8.73;87.09;96867.86;1726224;83;21010;-68
2022/11/11 02:52:23;;;;;;;17.40;10.00;;;;;;;8.73;87.14;96866.55;1726381;83;21002;-68
2022/11/11 02:55:09;;;;;;;17.10;10.30;;;;;;;8.79;87.54;96865.27;1722510;83;21046;-67
2022/11/11 02:57:55;;;;;;;18.77;10.80;;;;;;;8.83;87.03;96866.63;1757037;81;21450;-68
2022/11/11 03:00:41;;;;;;;20.27;10.63;;;;;;;8.81;87.04;96868.80;1757023;82;21035;-68
2022/11/11 03:03:26;;;;;;;19.27;10.60;;;;;;;8.84;87.02;96881.58;1756870;82;21066;-69
2022/11/11 03:06:11;;;;;;;20.72;10.15;;;;;;;8.80;86.77;96877.14;1757018;82;21498;-69
2022/11/11 03:08:56;;;;;;;18.07;10.28;;;;;;;8.81;87.07;96874.94;1757116;82;21019;-69
2022/11/11 03:11:42;;;;;;;17.67;10.18;;;;;;;8.81;87.31;96874.06;1757109;82;20968;-68
2022/11/11 03:14:27;;;;;;;18.82;9.93;;;;;;;8.82;86.79;96878.45;1757142;82;21132;-68
2022/11/11 03:23:23;;;;;;;20.30;10.90;;;;;;;8.54;86.84;96879.95;1757029;82;21019;-68
2022/11/11 03:26:09;;;;;;;17.30;9.45;;;;;;;8.40;87.26;96893.84;1757122;82;20972;-68
2022/11/11 03:28:55;;;;;;;18.27;9.78;;;;;;;8.33;87.20;96887.16;1757152;82;20984;-68
2022/11/11 03:31:41;;;;;;;20.50;10.78;;;;;;;8.27;87.21;96888.42;1757039;82;21011;-68
2022/11/11 03:34:26;;;;;;;18.73;11.68;;;;;;;8.24;87.53;96894.52;1757030;81;21043;-68
2022/11/11 03:40:15;;;;;;;19.98;10.63;;;;;;;8.23;87.70;96899.31;1757131;82;20984;-68
2022/11/11 03:43:01;;;;;;;16.30;9.58;;;;;;;8.23;87.72;96899.31;1757003;82;21027;-68
2022/11/11 03:45:47;;;;;;;23.38;11.85;;;;;;;8.21;87.91;96894.47;1756972;81;21062;-68
2022/11/11 03:48:33;;;;;;;22.87;11.75;;;;;;;8.20;87.79;96897.53;1756829;82;21039;-68
2022/11/11 03:51:19;;;;;;;21.62;10.88;;;;;;;8.20;87.90;96900.60;1757039;82;21466;-68
2022/11/11 03:54:04;;;;;;;25.52;12.88;;;;;;;8.20;88.09;96904.55;1757786;81;21000;-68
2022/11/11 03:56:49;;;;;;;22.45;11.48;;;;;;;8.20;88.06;96900.16;1762465;81;21083;-68
2022/11/11 03:59:35;;;;;;;22.98;11.70;;;;;;;8.21;87.81;96903.27;1762398;81;21019;-68
2022/11/11 04:11:36;;;;;;;21.42;10.95;;;;;;;8.16;87.79;96925.95;1762696;81;21513;-68
2022/11/11 04:17:25;;;;;;;18.20;9.80;;;;;;;8.14;87.63;96922.45;1762602;81;21006;-68
2022/11/11 04:23:14;;;;;;;18.37;10.10;;;;;;;8.14;87.51;96927.70;1726596;83;21049;-68
2022/11/11 04:26:00;;;;;;;18.80;10.03;;;;;;;8.16;87.47;96931.66;1708081;84;21068;-68
2022/11/11 04:35:02;;;;;;;18.98;11.12;;;;;;;8.19;87.28;96933.03;1625036;88;21015;-68
2022/11/11 04:37:51;;;;;;;21.73;10.93;;;;;;;8.22;87.45;96933.06;1639115;87;20987;-68
2022/11/11 04:46:50;;;;;;;14.55;9.13;;;;;;;8.36;87.88;96931.45;1726549;83;21041;-66
2022/11/11 04:49:36;;;;;;;16.45;10.38;;;;;;;8.31;86.70;96930.52;1726250;83;21070;-79
2022/11/11 04:52:26;;;;;;;19.57;10.48;;;;;;;8.26;87.26;96926.08;1726424;83;21496;-69
2022/11/11 04:58:20;;;;;;;18.12;9.98;;;;;;;8.01;86.24;96937.59;1749198;82;20986;-69
2022/11/11 05:01:05;;;;;;;15.75;9.03;;;;;;;7.93;87.13;96946.70;1713135;84;21007;-69
2022/11/11 05:03:50;;;;;;;18.07;9.93;;;;;;;7.84;86.23;96955.79;1749144;82;21027;-68
2022/11/11 05:09:39;;;;;;;14.75;10.18;;;;;;;7.65;86.32;96966.88;1749200;82;21023;-68
2022/11/11 05:12:24;;;;;;;17.53;10.83;;;;;;;7.52;86.31;96969.76;1748955;82;21016;-68
2022/11/11 05:21:25;;;;;;;18.07;9.03;;;;;;;7.19;86.08;96989.36;1749311;82;20973;-68
2022/11/11 05:27:13;;;;;;;;;;;;;;;7.02;86.21;96985.56;1751902;82;21043;-68
2022/11/11 05:29:58;;;;;;;16.50;8.73;;;;;;;6.90;86.22;96986.22;1749091;81;20097;-70
2022/11/11 05:32:43;;;;;;;14.20;8.60;;;;;;;6.87;86.61;96976.55;1695151;84;21061;-68
2022/11/11 05:35:28;;;;;;;11.80;6.70;;;;;;;6.85;86.56;96981.31;1694966;84;21079;-68
2022/11/11 05:38:22;;;;;;;14.37;7.93;;;;;;;6.76;86.36;96984.67;1749246;82;21015;-68
2022/11/11 05:41:08;;;;;;;;;;;;;;;6.63;86.12;96986.61;1715913;84;21118;-68
2022/11/11 05:43:53;;;;;;;12.10;7.47;;;;;;;6.54;86.38;96994.30;1700145;84;20102;-68
2022/11/11 05:46:38;;;;;;;14.60;7.53;;;;;;;6.49;86.75;96988.52;1699976;84;21519;-68
2022/11/11 05:49:24;;;;;;;14.93;8.00;;;;;;;6.44;86.59;96991.48;1700024;84;21016;-68
2022/11/11 05:52:11;;;;;;;15.47;9.17;;;;;;;6.38;87.25;96998.36;1699847;84;21064;-68
2022/11/11 05:54:57;;;;;;;14.63;9.43;;;;;;;6.34;88.00;97008.31;1700437;84;21074;-67
2022/11/11 05:57:42;;;;;;;14.20;7.57;;;;;;;6.33;88.03;97013.11;1704237;84;21078;-67
2022/11/11 06:00:28;;;;;;;26.43;19.63;;;;;;;6.29;87.92;97014.33;1703958;84;21664;-71
2022/11/11 06:03:13;;;;;;;13.53;8.10;;;;;;;6.28;88.18;97028.73;1705018;84;21557;-65
2022/11/11 06:05:58;;;;;;;15.00;7.40;;;;;;;6.33;88.49;97034.08;1704110;84;21008;-70
2022/11/11 06:08:43;;;;;;;10.47;6.40;;;;;;;6.36;87.89;97024.53;1704804;84;21503;-68
2022/11/11 06:11:29;;;;;;;17.77;10.13;;;;;;;6.28;87.44;97031.36;1704763;84;21024;-68
2022/11/11 06:14:14;;;;;;;35.47;20.23;;;;;;;6.26;88.20;97033.93;1703897;84;21515;-66
2022/11/11 06:16:59;;;;;;;17.67;10.03;;;;;;;6.30;87.94;97038.83;1704215;84;21483;-64
2022/11/11 06:19:44;;;;;;;25.13;13.03;;;;;;;6.34;87.93;97056.80;1703973;84;21098;-69
2022/11/11 06:28:44;;;;;;;9.50;5.60;;;;;;;6.33;87.77;97056.36;1712589;84;21090;-69
2022/11/11 06:31:28;;;;;;;23.13;10.27;;;;;;;6.35;87.66;97052.92;1712057;84;21084;-76
2022/11/11 06:34:14;;;;;;;33.17;14.80;;;;;;;6.45;88.72;97053.97;1712888;84;21032;-69
2022/11/11 06:36:59;;;;;;;24.20;13.50;;;;;;;6.64;89.36;97052.19;1713017;84;21080;-67
2022/11/11 06:39:45;;;;;;;25.37;14.97;;;;;;;6.82;89.12;97050.78;1712302;84;21454;-69
2022/11/11 06:42:36;;;;;;;29.50;17.43;;;;;;;6.93;88.87;97058.02;1711134;83;21079;-67
2022/11/11 06:45:23;;;;;;;24.77;14.90;;;;;;;7.11;89.15;97055.28;1700547;83;21189;-68
2022/11/11 06:48:08;;;;;;;31.83;16.27;;;;;;;7.29;88.55;97062.61;1705728;83;21071;-68
2022/11/11 06:50:55;;;;;;;26.33;19.00;;;;;;;7.40;87.62;97064.09;1711834;84;21060;-65
2022/11/11 06:53:41;;;;;;;26.50;16.13;;;;;;;7.47;87.59;97063.34;1688488;84;21031;-66
2022/11/11 06:56:26;;;;;;;21.23;12.60;;;;;;;7.51;87.16;97069.09;1712359;84;21004;-66
2022/11/11 06:59:11;;;;;;;17.17;10.72;;;;;;;7.66;87.79;97077.66;1713023;83;21028;-74
2022/11/11 07:01:56;;;;;;;21.47;12.13;;;;;;;7.75;87.28;97079.13;1710599;83;21035;-70
2022/11/11 07:04:41;;;;;;;28.47;15.03;;;;;;;7.74;85.53;97076.06;1708367;84;21047;-71
2022/11/11 07:07:27;;;;;;;22.83;15.63;;;;;;;7.77;85.72;97080.05;1709602;84;21053;-72
2022/11/11 07:10:14;;;;;;;18.92;12.25;;;;;;;7.77;86.05;97071.73;1712799;83;21109;-73
2022/11/11 07:12:59;;;;;;;17.17;11.47;;;;;;;7.86;86.27;97064.44;1712693;84;21520;-71
2022/11/11 07:15:45;;;;;;;20.57;13.43;;;;;;;7.91;85.52;97068.02;1713127;84;21007;-71
2022/11/11 07:18:30;;;;;;;24.32;13.35;;;;;;;7.95;85.27;97067.63;1711760;83;21588;-79
2022/11/11 07:21:14;;;;;;;23.32;13.65;;;;;;;8.03;85.63;97072.13;1712658;83;21061;-69
2022/11/11 07:24:00;;;;;;;22.77;11.40;;;;;;;8.10;85.11;97073.55;1712358;84;21153;-68
2022/11/11 07:26:45;;;;;;;20.00;10.20;;;;;;;8.17;84.74;97078.04;1711704;83;21071;-69
2022/11/11 07:29:30;;;;;;;22.45;10.15;;;;;;;8.22;84.20;97074.61;1707899;84;21045;-75
2022/11/11 07:32:16;;;;;;;22.62;10.93;;;;;;;8.31;83.65;97076.91;1709825;84;21085;-70
2022/11/11 07:35:01;;;;;;;20.17;11.00;;;;;;;8.35;83.29;97074.34;1705151;84;21091;-75
2022/11/11 07:37:47;;;;;;;34.15;11.43;;;;;;;8.38;83.01;97065.17;1706178;84;21046;-69
2022/11/11 07:40:31;;;;;;;18.32;10.98;;;;;;;8.45;82.59;97070.12;1707304;84;21525;-72
2022/11/11 07:43:17;;;;;;;24.43;11.28;;;;;;;8.51;82.22;97075.89;1709383;84;21100;-72
2022/11/11 07:46:02;;;;;;;17.62;10.95;;;;;;;8.61;82.54;97068.14;1705675;84;21058;-68
2022/11/11 07:48:47;;;;;;;19.57;11.63;;;;;;;8.70;82.12;97071.33;1707763;84;21012;-69
2022/11/11 07:51:32;;;;;;;18.12;9.80;;;;;;;8.79;81.81;97066.59;1707083;84;21326;-67
2022/11/11 07:54:17;;;;;;;22.10;11.12;;;;;;;8.91;81.06;97075.08;1709571;84;20952;-71
2022/11/11 07:57:02;;;;;;;16.10;10.28;;;;;;;9.01;81.11;97073.87;1687809;83;21517;-73
2022/11/11 07:59:47;;;;;;;14.18;8.70;;;;;;;9.17;81.18;97070.09;1692303;84;21074;-74
2022/11/11 08:02:33;;;;;;;19.30;10.00;;;;;;;9.25;79.10;97073.72;1693253;84;21069;-67
2022/11/11 08:05:18;;;;;;;14.93;9.03;;;;;;;9.37;80.39;97075.56;1694807;84;21033;-69
2022/11/11 08:08:05;;;;;;;16.30;9.55;;;;;;;9.44;77.82;97067.73;1729060;82;21035;-69
2022/11/11 08:10:54;;;;;;;12.75;8.50;;;;;;;9.47;75.89;97073.03;1733161;82;21541;-69
2022/11/11 08:13:40;;;;;;;16.20;10.53;;;;;;;9.50;76.46;97074.40;1746328;82;21598;-69
2022/11/11 08:16:25;;;;;;;15.88;9.30;;;;;;;9.59;77.05;97078.86;1751127;82;21088;-69
2022/11/11 08:19:09;;;;;;;17.35;9.65;;;;;;;9.73;77.55;97081.19;1750590;82;21567;-69
2022/11/11 08:21:55;;;;;;;16.62;10.78;;;;;;;9.83;77.01;97089.19;1749800;82;21042;-68
2022/11/11 08:24:40;;;;;;;14.60;9.10;;;;;;;9.90;75.62;97088.34;1750651;82;21054;-68
2022/11/11 08:27:25;;;;;;;14.80;9.03;;;;;;;9.97;76.10;97091.03;1751341;82;21078;-72
2022/11/11 08:30:11;;;;;;;19.15;12.37;;;;;;;10.05;75.68;97095.05;1751216;82;20998;-69
2022/11/11 08:33:03;;;;;;;18.70;11.57;;;;;;;10.11;74.07;97092.47;1751467;82;21006;-68
2022/11/11 08:35:49;;;;;;;23.38;12.00;;;;;;;10.10;73.57;97099.92;1720716;82;21604;-72
2022/11/11 08:38:34;;;;;;;23.27;13.72;;;;;;;10.13;74.38;97103.92;1716973;83;21038;-71
2022/11/11 08:41:21;;;;;;;16.73;10.90;;;;;;;10.16;74.61;97102.62;1717321;83;21086;-71
2022/11/11 08:44:06;;;;;;;15.68;9.95;;;;;;;10.22;73.99;97112.77;1730200;82;21074;-70
2022/11/11 08:46:51;;;;;;;13.65;8.45;;;;;;;10.23;73.09;97116.75;1726948;82;21477;-83
2022/11/11 08:49:36;;;;;;;14.68;9.68;;;;;;;10.25;72.72;97123.33;1733497;82;21069;-72
2022/11/11 08:52:22;;;;;;;14.58;9.00;;;;;;;10.29;72.01;97113.30;1735836;82;21551;-73
2022/11/11 08:55:07;;;;;;;12.98;9.25;;;;;;;10.38;73.00;97118.61;1730194;82;21042;-80
2022/11/11 08:58:00;;;;;;;11.22;7.87;;;;;;;10.49;72.69;97129.26;1732023;82;21059;-83
2022/11/11 09:00:45;;;;;;;13.58;7.92;;;;;;;10.51;71.29;97128.84;1727247;82;21672;-70
2022/11/11 09:03:31;;;;;;;10.20;7.25;;;;;;;10.50;69.64;97129.25;1728128;82;21059;-76
2022/11/11 09:06:16;;;;;;;14.07;8.63;;;;;;;10.50;70.18;97130.56;1718520;83;21067;-79
2022/11/11 09:09:01;;;;;;;16.25;9.33;;;;;;;10.59;71.24;97137.23;1717705;83;21099;-80
2022/11/11 09:11:46;;;;;;;10.80;6.83;;;;;;;10.69;69.59;97139.50;1717704;83;21027;-78
2022/11/11 09:14:31;;;;;;;9.18;6.78;;;;;;;10.70;68.58;97140.38;1717626;83;21130;-79
2022/11/11 09:17:16;;;;;;;9.93;6.47;;;;;;;10.78;68.64;97142.16;1718967;83;21038;-79
2022/11/11 09:20:01;;;;;;;10.72;7.95;;;;;;;10.87;69.27;97131.23;1718639;83;21083;-80
2022/11/11 09:22:48;;;;;;;11.68;6.90;;;;;;;10.88;67.31;97129.02;1717397;83;21516;-80
2022/11/11 09:25:33;;;;;;;9.50;6.72;;;;;;;10.98;68.21;97130.38;1716484;83;21070;-81
2022/11/11 09:28:18;;;;;;;9.93;7.20;;;;;;;11.05;66.74;97137.46;1716257;83;21659;-78
2022/11/11 09:31:04;;;;;;;10.82;7.17;;;;;;;11.19;67.86;97138.86;1716384;83;21584;-79
2022/11/11 09:33:50;;;;;;;10.88;7.60;;;;;;;11.30;67.36;97137.56;1717008;83;21090;-77
2022/11/11 09:36:35;;;;;;;10.43;7.53;;;;;;;11.39;66.48;97123.06;1717608;83;21059;-80
2022/11/11 09:39:20;;;;;;;10.40;7.20;;;;;;;11.42;65.46;97125.71;1717646;83;21539;-80
2022/11/11 09:42:37;;;;;;;9.48;7.12;;;;;;;11.53;65.63;97130.14;1717349;83;20992;-83
2022/11/11 09:45:56;;;;;;;10.68;7.10;;;;;;;11.66;66.11;97137.20;1701781;83;21062;-83
2022/11/11 09:48:58;;;;;;;10.25;6.87;;;;;;;11.80;65.22;97137.25;1717815;83;21148;-81
2022/11/11 09:51:52;;;;;;;11.30;6.72;;;;;;;12.05;64.42;97133.77;1718726;83;21083;-82
2022/11/11 09:54:57;;;;;;;8.55;6.55;;;;;;;12.33;63.05;97128.47;1718265;83;21015;-80
2022/11/11 09:57:52;;;;;;;12.53;6.72;;;;;;;12.56;62.08;97123.14;1743997;81;21088;-79
2022/11/11 10:00:41;;;;;;;10.38;7.30;;;;;;;13.29;60.91;97097.31;1712989;84;20991;-77
2022/11/11 10:03:29;;;;;;;12.00;7.30;;;;;;;13.29;60.91;97097.31;1747983;82;21070;-77
2022/11/11 10:06:26;;;;;;;9.90;5.60;;;;;;;13.85;61.20;97098.26;1712930;84;21530;-81
2022/11/11 10:09:25;;;;;;;9.65;6.30;;;;;;;14.41;58.29;97096.05;1747877;82;21123;-76
2022/11/11 10:12:14;;;;;;;6.28;5.45;;;;;;;14.75;54.23;97092.19;1712605;84;21046;-77
2022/11/11 10:15:00;;;;;;;7.53;5.60;;;;;;;14.93;52.60;97086.65;1747243;82;21170;-77
2022/11/11 10:17:56;;;;;;;7.53;5.42;;;;;;;15.12;52.98;97082.87;1713017;84;20998;-80
2022/11/11 10:20:41;;;;;;;8.88;6.55;;;;;;;15.43;52.12;97082.46;1748171;82;21087;-73
2022/11/11 10:23:31;;;;;;;7.50;5.90;;;;;;;15.81;52.95;97084.17;1711400;84;21075;-75
2022/11/11 10:26:32;;;;;;;7.08;5.60;;;;;;;16.13;49.87;97077.88;1718272;83;21541;-75
2022/11/11 10:29:20;;;;;;;7.72;5.17;;;;;;;16.21;49.74;97081.28;1684623;85;21054;-74
2022/11/11 10:32:27;;;;;;;6.53;5.17;;;;;;;16.27;49.62;97076.30;1719253;83;21007;-74
2022/11/11 10:35:22;;;;;;;6.53;4.78;;;;;;;16.51;48.78;97060.80;1684805;85;21505;-75
2022/11/11 10:38:24;;;;;;;6.33;5.35;;;;;;;16.58;48.01;97055.75;1725747;82;21034;-74
2022/11/11 10:41:14;;;;;;;6.55;5.20;;;;;;;16.75;46.76;97056.31;1684020;85;21003;-75
2022/11/11 10:43:59;;;;;;;7.55;5.37;;;;;;;17.17;47.48;97057.72;1684380;85;20998;-75
2022/11/11 10:47:14;;;;;;;5.20;4.15;;;;;;;17.43;44.43;97053.14;1718516;83;21017;-75
2022/11/11 10:50:19;;;;;;;5.87;4.85;;;;;;;17.69;43.68;97053.03;1718088;83;21029;-75
2022/11/11 10:53:31;;;;;;;8.73;4.10;;;;;;;18.05;42.67;97047.27;1718680;83;21064;-75
2022/11/11 10:56:24;;;;;;;5.55;4.10;;;;;;;18.07;41.96;97052.13;1720368;82;21072;-75
2022/11/11 10:59:23;;;;;;;7.40;6.10;;;;;;;18.19;42.74;97050.05;1731783;83;21048;-74
2022/11/11 11:02:27;;;;;;;6.80;5.90;;;;;;;17.71;42.53;97052.08;1732339;83;21013;-75
2022/11/11 11:05:45;;;;;;;6.47;5.55;;;;;;;16.97;43.76;97044.80;1732350;83;21040;-75
2022/11/11 11:08:38;;;;;;;5.20;4.58;;;;;;;16.60;44.27;97054.81;1732342;83;21048;-75
2022/11/11 11:11:34;;;;;;;6.47;4.90;;;;;;;16.22;45.43;97053.73;1732457;83;21017;-75
2022/11/11 11:14:36;;;;;;;14.23;7.00;;;;;;;15.83;45.92;97051.31;1732080;83;21060;-75
2022/11/11 11:17:50;;;;;;;9.63;5.72;;;;;;;15.70;46.92;97039.08;1732442;83;21023;-75
2022/11/11 11:20:35;;;;;;;6.72;5.35;;;;;;;15.61;46.84;97045.86;1732017;83;21008;-75
2022/11/11 11:23:37;;;;;;;7.10;4.83;;;;;;;15.26;46.42;97044.13;1732423;83;21507;-75
2022/11/11 11:26:22;;;;;;;5.85;4.28;;;;;;;15.37;48.47;97034.66;1732221;83;21019;-75
2022/11/11 11:29:07;;;;;;;5.55;4.35;;;;;;;15.48;46.29;97031.86;1732120;83;21016;-75
2022/11/11 11:31:53;;;;;;;7.58;5.10;;;;;;;15.36;46.74;97028.92;1732438;83;21522;-75
2022/11/11 11:34:55;;;;;;;5.17;4.10;;;;;;;15.24;46.97;97033.95;1732225;83;21021;-75
2022/11/11 11:37:50;;;;;;;6.37;5.20;;;;;;;15.14;46.49;97026.58;1732308;83;21025;-75
2022/11/11 11:40:56;;;;;;;7.85;5.65;;;;;;;14.99;47.25;97020.56;1732522;83;21008;-75
2022/11/11 11:43:42;;;;;;;6.42;4.92;;;;;;;14.86;47.91;97015.41;1732526;83;20993;-75
2022/11/11 11:46:37;;;;;;;10.75;5.62;;;;;;;14.86;48.26;97020.72;1732308;83;21021;-75
2022/11/11 11:49:48;;;;;;;6.20;4.72;;;;;;;14.99;48.63;97014.80;1732371;83;21052;-75
2022/11/11 11:52:41;;;;;;;11.03;7.30;;;;;;;14.94;47.75;97013.98;1718916;82;21036;-75
2022/11/11 11:55:37;;;;;;;10.00;6.35;;;;;;;14.93;48.60;97014.89;1732050;83;21012;-75
2022/11/11 11:58:45;;;;;;;9.48;6.20;;;;;;;15.02;48.53;97016.53;1720617;82;21076;-75
2022/11/11 12:01:57;;;;;;;9.58;7.28;;;;;;;14.74;47.67;97019.58;1719421;83;21022;-75
2022/11/11 12:05:19;;;;;;;10.75;6.55;;;;;;;14.39;48.79;97025.22;1719339;83;21013;-75
2022/11/11 12:08:12;;;;;;;11.90;8.70;;;;;;;14.08;49.46;97036.16;1719449;83;21029;-75
2022/11/11 12:11:19;;;;;;;11.05;8.25;;;;;;;13.83;50.09;97032.84;1719466;83;21511;-75
2022/11/11 12:14:41;;;;;;;9.90;7.10;;;;;;;13.62;50.55;97040.53;1719461;83;21025;-75
2022/11/11 12:17:44;;;;;;;12.45;9.00;;;;;;;13.43;51.68;97039.80;1719235;83;21025;-74
2022/11/11 12:21:03;;;;;;;9.13;6.75;;;;;;;13.32;51.94;97037.64;1719398;83;21029;-74
2022/11/11 12:24:15;;;;;;;12.95;6.35;;;;;;;13.28;52.45;97035.89;1719263;83;21037;-74
2022/11/11 12:27:29;;;;;;;10.43;6.35;;;;;;;13.23;52.72;97041.20;1719459;83;21331;-75
2022/11/11 12:30:26;;;;;;;13.30;7.08;;;;;;;13.07;52.11;97043.48;1719358;83;21468;-75
2022/11/11 12:33:34;;;;;;;10.50;7.03;;;;;;;13.07;52.11;97043.48;1719581;83;21495;-75
2022/11/11 12:36:36;;;;;;;11.03;6.30;;;;;;;13.02;52.75;97038.66;1719157;83;21008;-75
2022/11/11 12:40:06;;;;;;;254.85;85.83;;;;;;;12.99;52.47;97045.73;1719049;83;21552;-75
2022/11/11 12:42:59;;;;;;;635.92;301.82;;;;;;;12.92;53.00;97042.67;1719465;82;21565;-75
2022/11/11 12:46:05;;;;;;;31.60;15.20;;;;;;;12.84;53.55;97050.22;1718900;83;21559;-75
2022/11/11 12:49:08;;;;;;;61.08;30.50;;;;;;;12.73;52.66;97044.53;1719484;82;21056;-75
2022/11/11 12:52:34;;;;;;;54.88;24.75;;;;;;;12.66;53.94;97040.14;1719109;82;21053;-75
2022/11/11 12:56:01;;;;;;;21.93;11.40;;;;;;;12.76;53.67;97044.51;1719453;82;21021;-75
2022/11/11 12:59:01;;;;;;;10.08;5.47;;;;;;;12.76;53.47;97035.24;1719052;82;21045;-75
2022/11/11 13:02:00;;;;;;;52.35;26.70;;;;;;;12.71;53.49;97052.04;1719476;83;21045;-75
2022/11/11 13:05:10;;;;;;;64.27;30.37;;;;;;;12.71;53.49;97052.04;1719280;82;21005;-75
2022/11/11 13:08:12;;;;;;;88.20;41.48;;;;;;;12.65;53.28;97052.95;1719142;82;21057;-75
2022/11/11 13:11:41;;;;;;;57.00;28.95;;;;;;;12.61;53.76;97056.48;1719490;82;21041;-75
2022/11/11 13:14:57;;;;;;;33.92;15.93;;;;;;;12.63;53.56;97059.14;1719344;83;21009;-76
2022/11/11 13:17:42;;;;;;;119.80;54.25;;;;;;;12.55;53.44;97063.14;1719265;82;21526;-76
2022/11/11 13:20:44;;;;;;;52.17;26.33;;;;;;;12.38;53.24;97067.59;1719322;82;21005;-76
2022/11/11 13:23:29;;;;;;;75.10;33.85;;;;;;;12.38;53.24;97067.59;1719259;82;21010;-75
2022/11/11 13:26:38;;;;;;;85.57;38.85;;;;;;;12.33;53.25;97071.56;1719477;82;21049;-75
2022/11/11 13:29:52;;;;;;;178.02;68.30;;;;;;;12.24;53.61;97071.56;1719238;82;21056;-75
2022/11/11 13:32:42;;;;;;;193.65;69.03;;;;;;;12.11;54.52;97066.28;1719593;82;21053;-75
2022/11/11 13:35:41;;;;;;;221.68;71.85;;;;;;;12.09;54.90;97080.40;1719190;83;21068;-75
2022/11/11 13:38:40;;;;;;;220.17;74.20;;;;;;;12.02;55.55;97087.48;1719486;82;21049;-75
2022/11/11 13:41:29;;;;;;;61.53;27.00;;;;;;;11.94;56.13;97083.05;1719199;82;20989;-75
2022/11/11 13:44:22;;;;;;;39.18;20.05;;;;;;;11.86;56.39;97084.34;1719465;82;21014;-75
2022/11/11 13:47:16;;;;;;;34.40;18.57;;;;;;;11.76;57.12;97075.97;1719504;82;21057;-74
2022/11/11 13:50:27;;;;;;;65.05;28.05;;;;;;;11.64;57.57;97083.44;1719751;82;21013;-75
2022/11/11 13:53:30;;;;;;;44.83;21.93;;;;;;;11.53;57.92;97087.40;1719375;82;21037;-75
2022/11/11 13:56:30;;;;;;;23.95;13.83;;;;;;;11.39;58.51;97079.46;1719517;82;21066;-75
2022/11/11 13:59:31;;;;;;;19.70;12.70;;;;;;;11.27;59.04;97082.07;1719674;82;21026;-76
2022/11/11 14:02:25;;;;;;;25.60;13.53;;;;;;;11.12;59.55;97076.30;1719487;83;21009;-75
2022/11/11 14:05:15;;;;;;;30.55;16.57;;;;;;;11.01;59.67;97070.08;1719385;82;21025;-75
2022/11/11 14:08:00;;;;;;;13.43;9.63;;;;;;;10.93;60.17;97075.34;1719575;83;21472;-75
2022/11/11 14:10:58;;;;;;;19.67;11.88;;;;;;;10.82;60.38;97080.59;1719295;83;21053;-75
2022/11/11 14:13:43;;;;;;;24.00;15.23;;;;;;;10.71;61.52;97083.63;1719365;83;20978;-75
2022/11/11 14:16:39;;;;;;;20.12;13.65;;;;;;;10.58;62.08;97087.06;1719539;83;20978;-75
2022/11/11 14:19:28;;;;;;;21.05;13.95;;;;;;;10.51;62.13;97094.09;1719272;82;21029;-75
2022/11/11 14:22:32;;;;;;;24.47;15.25;;;;;;;10.41;62.82;97093.59;1719538;82;21005;-75
2022/11/11 14:25:26;;;;;;;33.78;18.40;;;;;;;10.34;63.67;97090.02;1719471;83;21008;-75
2022/11/11 14:28:29;;;;;;;31.70;17.10;;;;;;;10.28;64.17;97080.76;1719649;83;21049;-75
2022/11/11 14:31:20;;;;;;;25.25;15.20;;;;;;;10.24;65.01;97074.97;1719430;83;21025;-76
2022/11/11 14:34:28;;;;;;;22.98;13.30;;;;;;;10.22;64.59;97082.42;1719575;83;20978;-75
2022/11/11 14:37:27;;;;;;;31.37;17.23;;;;;;;10.17;64.84;97089.86;1719150;82;21098;-75
2022/11/11 14:40:18;;;;;;;27.15;15.35;;;;;;;10.11;65.32;97091.16;1719569;82;21021;-76